Time;durP1;ratioP1;P1;durP2;ratioP2;P2;SDS_P1;SDS_P2;PMS_P1;PMS_P2;Temp;Humidity;BMP_temperature;BMP_pressure;BME280_temperature;BME280_humidity;BME280_pressure;Samples;Min_cycle;Max_cycle;Signal;HPM_P1;HPM_P2
2021/04/27 00:02:15;;;;;;;;;;;;;;;-144.99;53.83;52195.34;5045125;28;19951;-58
2021/04/27 00:04:41;;;;;;;;;;;;;;;-144.99;53.65;52219.81;5046340;28;19950;-58
2021/04/27 00:07:07;;;;;;;;;;;;;;;-144.99;53.62;52203.50;5046516;28;19999;-58
2021/04/27 00:09:36;;;;;;;;;;;;;;;-144.99;53.50;52203.50;5046062;28;20479;-58
2021/04/27 00:12:06;;;;;;;;;;;;;;;-144.99;53.77;52223.88;5045737;28;19957;-58
2021/04/27 00:14:32;;;;;;;;;;;;;;;-144.99;54.20;52213.69;5043576;28;20044;-59
2021/04/27 00:16:58;;;;;;;;;;;;;;;-144.99;53.93;52207.59;5044815;28;19949;-59
2021/04/27 00:19:27;;;;;;;;;;;;;;;-144.99;54.03;52223.88;5045443;28;19999;-59
2021/04/27 00:21:54;;;;;;;;;;;;;;;-144.99;53.87;52195.34;5048145;28;19968;-58
2021/04/27 00:24:19;;;;;;;;;;;;;;;-144.99;53.92;52219.81;5048814;28;20555;-59
2021/04/27 00:26:48;;;;;;;;;;;;;;;-144.99;54.09;52193.31;5048968;28;20097;-59
2021/04/27 00:29:18;;;;;;;;;;;;;;;-144.99;54.21;52252.44;5048049;28;20019;-58
2021/04/27 00:31:44;;;;;;;;;;;;;;;-144.99;54.21;52254.47;5047905;28;20009;-59
2021/04/27 00:34:12;;;;;;;;;;;;;;;-144.99;54.43;52223.88;5048497;28;20064;-58
2021/04/27 00:36:38;;;;;;;;;;;;;;;-144.99;54.57;52201.47;5046468;28;19948;-58
2021/04/27 00:39:07;;;;;;;;;;;;;;;-144.99;54.90;52207.59;5049052;28;19974;-58
2021/04/27 00:41:33;;;;;;;;;;;;;;;-144.99;55.11;52223.88;5047929;28;19976;-58
2021/04/27 00:43:58;;;;;;;;;;;;;;;-144.99;55.08;52215.75;5050587;28;20454;-57
2021/04/27 00:46:25;;;;;;;;;;;;;;;-144.99;55.04;52203.50;5049752;28;20197;-57
2021/04/27 00:48:51;;;;;;;;;;;;;;;-144.99;55.22;52256.50;5047996;28;19975;-57
2021/04/27 00:51:23;;;;;;;;;;;;;;;-144.99;55.46;52230.00;5049020;28;20014;-59
2021/04/27 00:53:52;;;;;;;;;;;;;;;-144.99;55.41;52195.34;5048557;28;19954;-56
2021/04/27 00:56:22;;;;;;;;;;;;;;;-144.99;55.42;52219.81;5048401;28;19955;-56
2021/04/27 00:58:48;;;;;;;;;;;;;;;-144.99;55.44;52223.88;5048969;28;19966;-57
2021/04/27 01:01:14;;;;;;;;;;;;;;;-144.99;55.58;52187.19;5047982;28;19981;-58
2021/04/27 01:03:41;;;;;;;;;;;;;;;-144.99;55.66;52213.69;5048331;28;19948;-58
2021/04/27 01:06:10;;;;;;;;;;;;;;;-144.99;56.02;52232.03;5048293;28;19959;-57
2021/04/27 01:08:42;;;;;;;;;;;;;;;-144.99;56.04;52195.34;5048654;28;19983;-57
2021/04/27 01:11:15;;;;;;;;;;;;;;;-144.99;55.98;52199.44;5046900;28;20013;-57
2021/04/27 01:13:46;;;;;;;;;;;;;;;-144.99;56.15;52246.31;5047806;28;20430;-56
2021/04/27 01:16:13;;;;;;;;;;;;;;;-144.99;56.23;52185.16;5047317;28;19948;-60
2021/04/27 01:18:41;;;;;;;;;;;;;;;-144.99;56.40;52195.34;5048762;28;19967;-59
2021/04/27 01:21:11;;;;;;;;;;;;;;;-144.99;56.43;52219.81;5047598;28;19967;-60
2021/04/27 01:23:46;;;;;;;;;;;;;;;-144.99;56.48;52215.75;5048383;28;20016;-59
2021/04/27 01:26:13;;;;;;;;;;;;;;;-144.99;56.53;52201.47;5048002;28;19990;-59
2021/04/27 01:28:46;;;;;;;;;;;;;;;-144.99;56.68;52197.41;5046625;28;19973;-60
2021/04/27 01:31:12;;;;;;;;;;;;;;;-144.99;56.60;52221.84;5047123;28;19980;-61
2021/04/27 01:33:38;;;;;;;;;;;;;;;-144.99;57.51;52244.28;5048343;28;19951;-60
2021/04/27 01:36:08;;;;;;;;;;;;;;;-144.99;58.32;52211.66;5048609;28;19952;-60
2021/04/27 01:38:36;;;;;;;;;;;;;;;-144.99;58.34;52199.44;5044782;28;20363;-60
2021/04/27 01:41:05;;;;;;;;;;;;;;;-144.99;58.35;52191.28;5047482;28;20429;-60
2021/04/27 01:43:34;;;;;;;;;;;;;;;-144.99;58.48;52199.44;5045156;28;20418;-60
2021/04/27 01:46:05;;;;;;;;;;;;;;;-144.99;59.10;52207.59;5046727;28;19953;-60
2021/04/27 01:48:32;;;;;;;;;;;;;;;-144.99;58.96;52207.59;5044930;28;19998;-61
2021/04/27 01:50:57;;;;;;;;;;;;;;;-144.99;58.88;52215.75;5046385;28;19954;-59
2021/04/27 01:53:27;;;;;;;;;;;;;;;-144.99;58.88;52221.84;5046982;28;19957;-62
2021/04/27 01:55:55;;;;;;;;;;;;;;;-144.99;58.97;52211.66;5047567;28;19956;-61
2021/04/27 01:58:21;;;;;;;;;;;;;;;-144.99;58.90;52191.28;5047165;28;19969;-60
2021/04/27 02:00:47;;;;;;;;;;;;;;;-144.99;58.83;52203.50;5045034;28;19970;-61
2021/04/27 02:03:14;;;;;;;;;;;;;;;-144.99;59.05;52191.28;5046786;28;19949;-60
2021/04/27 02:05:40;;;;;;;;;;;;;;;-144.99;59.15;52187.19;5047427;28;20013;-60
2021/04/27 02:08:06;;;;;;;;;;;;;;;-144.99;59.10;52240.19;5047708;28;20459;-61
2021/04/27 02:10:35;;;;;;;;;;;;;;;-144.99;59.10;52195.34;5047634;28;19951;-62
2021/04/27 02:13:06;;;;;;;;;;;;;;;-144.99;59.28;52199.44;5048607;28;19957;-61
2021/04/27 02:15:32;;;;;;;;;;;;;;;-144.99;59.61;52199.44;5047089;28;19953;-61
2021/04/27 02:18:03;;;;;;;;;;;;;;;-144.99;59.35;52211.66;5047557;28;19968;-60
2021/04/27 02:20:30;;;;;;;;;;;;;;;-144.99;59.46;52203.50;5046226;28;19978;-59
2021/04/27 02:22:59;;;;;;;;;;;;;;;-144.99;59.37;52236.13;5047318;28;19994;-59
2021/04/27 02:25:25;;;;;;;;;;;;;;;-144.99;59.65;52183.13;5046266;28;19966;-60
2021/04/27 02:27:51;;;;;;;;;;;;;;;-144.99;59.58;52225.94;5047363;28;20019;-60
2021/04/27 02:30:19;;;;;;;;;;;;;;;-144.99;59.87;52211.66;5047607;28;20005;-60
2021/04/27 02:32:48;;;;;;;;;;;;;;;-144.99;59.85;52209.63;5046123;28;20346;-60
2021/04/27 02:35:14;;;;;;;;;;;;;;;-144.99;59.82;52227.97;5045352;28;19952;-61
2021/04/27 02:37:41;;;;;;;;;;;;;;;-144.99;60.07;52236.13;5047026;28;19961;-61
2021/04/27 02:40:11;;;;;;;;;;;;;;;-144.99;60.17;52230.00;5045640;28;19956;-61
2021/04/27 02:42:40;;;;;;;;;;;;;;;-144.99;60.07;52211.66;5046617;28;19957;-61
2021/04/27 02:45:10;;;;;;;;;;;;;;;-144.99;60.62;52260.56;5044890;28;19958;-61
2021/04/27 02:47:39;;;;;;;;;;;;;;;-144.99;60.33;52181.09;5045975;28;19950;-61
2021/04/27 02:50:05;;;;;;;;;;;;;;;-144.99;60.43;52195.34;5043592;28;19953;-61
2021/04/27 02:52:31;;;;;;;;;;;;;;;-144.99;60.67;52187.19;5045318;28;19953;-61
2021/04/27 02:55:00;;;;;;;;;;;;;;;-144.99;60.71;52207.59;5046106;28;19964;-62
2021/04/27 02:57:29;;;;;;;;;;;;;;;-144.99;60.76;52232.03;5046048;28;20319;-62
2021/04/27 02:59:55;;;;;;;;;;;;;;;-144.99;61.01;52203.50;5042048;28;19952;-61
2021/04/27 03:02:20;;;;;;;;;;;;;;;-144.99;60.81;52223.88;5046266;28;20025;-61
2021/04/27 03:04:46;;;;;;;;;;;;;;;-144.99;60.80;52191.28;5045810;28;19955;-61
2021/04/27 03:07:12;;;;;;;;;;;;;;;-144.99;60.94;52244.28;5045975;28;19972;-61
2021/04/27 03:09:38;;;;;;;;;;;;;;;-144.99;61.07;52211.66;5044542;28;20435;-61
2021/04/27 03:12:05;;;;;;;;;;;;;;;-144.99;61.16;52223.88;5047090;28;19957;-62
2021/04/27 03:14:31;;;;;;;;;;;;;;;-144.99;61.08;52191.28;5041762;28;20359;-62
2021/04/27 03:16:57;;;;;;;;;;;;;;;-144.99;61.15;52240.19;5045717;28;19952;-61
2021/04/27 03:19:23;;;;;;;;;;;;;;;-144.99;61.12;52246.31;5045814;28;20025;-61
2021/04/27 03:21:52;;;;;;;;;;;;;;;-144.99;61.38;52232.03;5046080;28;19964;-61
2021/04/27 03:24:18;;;;;;;;;;;;;;;-144.99;61.54;52232.03;5045745;28;20002;-62
2021/04/27 03:26:44;;;;;;;;;;;;;;;-144.99;61.77;52179.06;5045503;28;19948;-61
2021/04/27 03:29:10;;;;;;;;;;;;;;;-144.99;61.65;52197.41;5044871;28;19980;-61
2021/04/27 03:31:37;;;;;;;;;;;;;;;-144.99;61.51;52234.09;5046703;28;19959;-61
2021/04/27 03:34:08;;;;;;;;;;;;;;;-144.99;61.85;52207.59;5045902;28;19952;-62
2021/04/27 03:36:37;;;;;;;;;;;;;;;-144.99;61.95;52223.88;5045107;28;19958;-61
2021/04/27 03:39:06;;;;;;;;;;;;;;;-144.99;61.81;52195.34;5045987;28;19981;-60
2021/04/27 03:41:31;;;;;;;;;;;;;;;-144.99;61.87;52236.13;5047375;28;20118;-62
2021/04/27 03:43:57;;;;;;;;;;;;;;;-144.99;62.02;52195.34;5049295;28;20062;-60
2021/04/27 03:46:24;;;;;;;;;;;;;;;-144.99;62.15;52219.81;5049667;28;20411;-60
2021/04/27 03:48:50;;;;;;;;;;;;;;;-144.99;62.31;52230.00;5046181;28;19965;-60
2021/04/27 03:51:18;;;;;;;;;;;;;;;-144.99;62.51;52195.34;5046252;28;19947;-60
2021/04/27 03:53:48;;;;;;;;;;;;;;;-144.99;62.77;52211.66;5046608;28;19946;-60
2021/04/27 03:56:16;;;;;;;;;;;;;;;-144.99;62.81;52207.59;5048408;28;19949;-61
2021/04/27 03:58:47;;;;;;;;;;;;;;;-144.99;63.07;52236.13;5049445;28;20391;-62
2021/04/27 04:01:12;;;;;;;;;;;;;;;-144.99;64.19;52203.50;5049539;28;19961;-61
2021/04/27 04:03:42;;;;;;;;;;;;;;;-144.99;65.68;52215.75;5050111;28;20724;-60
2021/04/27 04:06:11;;;;;;;;;;;;;;;-144.99;67.41;52160.72;5050245;28;19945;-62
2021/04/27 04:08:40;;;;;;;;;;;;;;;-144.99;68.54;52223.88;5049390;28;19970;-61
2021/04/27 04:11:08;;;;;;;;;;;;;;;-144.99;70.19;52195.34;5048417;28;20531;-61
2021/04/27 04:13:40;;;;;;;;;;;;;;;-144.99;69.43;52199.44;5049606;28;19970;-62
2021/04/27 04:16:06;;;;;;;;;;;;;;;-144.99;67.79;52221.84;5049834;28;19952;-61
2021/04/27 04:18:32;;;;;;;;;;;;;;;-144.99;66.46;52195.34;5049151;28;19964;-61
2021/04/27 04:20:59;;;;;;;;;;;;;;;-144.99;65.71;52195.34;5050204;28;20455;-61
2021/04/27 04:23:28;;;;;;;;;;;;;;;-144.99;64.91;52211.66;5048967;28;19960;-61
2021/04/27 04:25:54;;;;;;;;;;;;;;;-144.99;64.56;52211.66;5049508;28;19966;-62
2021/04/27 04:28:23;;;;;;;;;;;;;;;-144.99;64.29;52187.19;5049040;28;19965;-61
2021/04/27 04:30:52;;;;;;;;;;;;;;;-144.99;64.20;52195.34;5049024;28;19948;-62
2021/04/27 04:33:18;;;;;;;;;;;;;;;-144.99;64.16;52240.19;5051815;28;19985;-62
2021/04/27 04:35:44;;;;;;;;;;;;;;;-144.99;65.23;52223.88;5051492;28;20009;-67
2021/04/27 04:38:10;;;;;;;;;;;;;;;-144.99;65.74;52195.34;5052837;28;19965;-68
2021/04/27 04:40:42;;;;;;;;;;;;;;;-144.99;64.79;52195.34;5051810;28;20448;-68
2021/04/27 04:43:11;;;;;;;;;;;;;;;-144.99;63.79;52193.31;5052527;28;20351;-68
2021/04/27 04:45:42;;;;;;;;;;;;;;;-144.99;63.44;52174.97;5053034;28;19948;-67
2021/04/27 04:48:08;;;;;;;;;;;;;;;-144.99;63.31;52187.19;5048507;28;20018;-64
2021/04/27 04:50:33;;;;;;;;;;;;;;;-144.99;63.10;52168.84;5049781;28;20288;-62
2021/04/27 04:52:59;;;;;;;;;;;;;;;-144.99;62.88;52170.91;5049112;28;19952;-65
2021/04/27 04:55:26;;;;;;;;;;;;;;;-144.99;62.96;52209.63;5049099;28;20027;-63
2021/04/27 04:57:52;;;;;;;;;;;;;;;-144.99;62.82;52232.03;5049497;28;19966;-64
2021/04/27 05:00:22;;;;;;;;;;;;;;;-144.99;62.77;52203.50;5048208;28;19948;-64
2021/04/27 05:02:50;;;;;;;;;;;;;;;-144.99;62.67;52174.97;5049315;28;21684;-64
2021/04/27 05:05:19;;;;;;;;;;;;;;;-144.99;62.38;52203.50;4348094;28;10000768;-64
2021/04/27 05:07:47;;;;;;;;;;;;;;;-144.99;62.88;52191.28;5045354;28;19945;-64
2021/04/27 05:10:16;;;;;;;;;;;;;;;-144.99;62.59;52174.97;5045651;28;19951;-62
2021/04/27 05:12:43;;;;;;;;;;;;;;;-144.99;62.42;52211.66;5043145;28;19954;-62
2021/04/27 05:15:11;;;;;;;;;;;;;;;-144.99;62.38;52185.16;5041316;28;20337;-64
2021/04/27 05:17:43;;;;;;;;;;;;;;;-144.99;62.14;52162.75;4697479;28;10000376;-63
2021/04/27 05:20:12;;;;;;;;;;;;;;;-144.99;61.50;52197.41;5043785;28;19950;-64
2021/04/27 05:22:41;;;;;;;;;;;;;;;-144.99;61.28;52191.28;5046025;28;19960;-61
2021/04/27 05:25:09;;;;;;;;;;;;;;;-144.99;61.10;52158.66;5044500;28;20349;-63
2021/04/27 05:27:35;;;;;;;;;;;;;;;-144.99;60.90;52179.06;5045128;28;20001;-63
2021/04/27 05:30:03;;;;;;;;;;;;;;;-144.99;60.67;52183.13;5045311;28;20311;-62
2021/04/27 05:32:30;;;;;;;;;;;;;;;-144.99;60.48;52203.50;5045389;28;19958;-64
2021/04/27 05:34:58;;;;;;;;;;;;;;;-144.99;60.45;52193.31;5045787;28;19944;-64
2021/04/27 05:37:24;;;;;;;;;;;;;;;-144.99;60.43;52215.75;5039463;28;19958;-65
2021/04/27 05:39:50;;;;;;;;;;;;;;;-144.99;60.21;52223.88;5045721;28;20418;-64
2021/04/27 05:42:16;;;;;;;;;;;;;;;-144.99;60.39;52132.19;5045216;28;19967;-64
2021/04/27 05:44:45;;;;;;;;;;;;;;;-144.99;59.74;52203.50;5047568;28;19953;-64
2021/04/27 05:47:11;;;;;;;;;;;;;;;-144.99;59.06;52225.94;5048348;28;20219;-63
2021/04/27 05:49:37;;;;;;;;;;;;;;;-144.99;58.82;52187.19;5045172;28;20062;-63
2021/04/27 05:52:06;;;;;;;;;;;;;;;-144.99;58.79;52187.19;5048616;28;19959;-63
2021/04/27 05:54:32;;;;;;;;;;;;;;;-144.99;58.77;52183.13;5046234;28;19949;-66
2021/04/27 05:56:58;;;;;;;;;;;;;;;-144.99;58.50;52170.91;5047828;28;20119;-63
2021/04/27 05:59:24;;;;;;;;;;;;;;;-144.99;58.15;52154.59;5047173;28;20010;-64
2021/04/27 06:01:52;;;;;;;;;;;;;;;-144.99;57.64;52162.75;5035417;28;20050;-64
2021/04/27 06:04:19;;;;;;;;;;;;;;;-144.99;57.39;52185.16;5044237;28;19951;-64
2021/04/27 06:06:47;;;;;;;;;;;;;;;-144.99;57.06;52191.28;5048504;28;20451;-64
2021/04/27 06:09:15;;;;;;;;;;;;;;;-144.99;56.83;52166.81;5042836;28;19970;-63
2021/04/27 06:11:42;;;;;;;;;;;;;;;-144.99;56.66;52158.66;5047053;28;19954;-63
2021/04/27 06:14:08;;;;;;;;;;;;;;;-144.99;56.25;52195.34;5040146;28;20051;-63
2021/04/27 06:16:37;;;;;;;;;;;;;;;-144.99;56.16;52164.78;5044324;28;20108;-63
2021/04/27 06:19:03;;;;;;;;;;;;;;;-144.99;55.95;52219.81;5041855;28;20330;-62
2021/04/27 06:21:29;;;;;;;;;;;;;;;-144.99;55.86;52185.16;5043513;28;19973;-63
2021/04/27 06:23:55;;;;;;;;;;;;;;;-144.99;55.55;52179.06;5045295;28;19955;-63
2021/04/27 06:26:27;;;;;;;;;;;;;;;-144.99;54.77;52146.44;5044729;28;19949;-65
2021/04/27 06:28:53;;;;;;;;;;;;;;;-144.99;54.62;52158.66;5043505;28;19966;-64
2021/04/27 06:31:19;;;;;;;;;;;;;;;-144.99;54.15;52146.44;5044956;28;20054;-65
2021/04/27 06:33:48;;;;;;;;;;;;;;;-144.99;53.40;52146.44;5043824;28;19959;-64
2021/04/27 06:36:15;;;;;;;;;;;;;;;-144.99;52.73;52134.22;5044545;28;20192;-64
2021/04/27 06:38:41;;;;;;;;;;;;;;;-144.99;52.24;52146.44;5043363;28;20240;-64
2021/04/27 06:41:07;;;;;;;;;;;;;;;-144.99;52.18;52183.13;5043197;28;19977;-62
2021/04/27 06:43:33;;;;;;;;;;;;;;;-144.99;51.96;52197.41;5044566;28;19960;-62
2021/04/27 06:45:59;;;;;;;;;;;;;;;-144.99;51.13;52164.78;5044252;28;19949;-64
2021/04/27 06:48:33;;;;;;;;;;;;;;;-144.99;50.40;52146.44;5044274;28;20346;-64
2021/04/27 06:50:59;;;;;;;;;;;;;;;-144.99;49.75;52158.66;5042809;28;19957;-63
2021/04/27 06:53:25;;;;;;;;;;;;;;;-144.99;49.37;52119.94;5044256;28;19959;-63
2021/04/27 06:55:52;;;;;;;;;;;;;;;-144.99;49.39;52132.19;5043952;28;19954;-64
2021/04/27 06:58:21;;;;;;;;;;;;;;;-144.99;48.98;52138.28;5044211;28;19968;-62
2021/04/27 07:00:46;;;;;;;;;;;;;;;-144.99;48.87;52166.81;5041352;28;19957;-63
2021/04/27 07:03:12;;;;;;;;;;;;;;;-144.99;48.25;52179.06;5044328;28;20000;-63
2021/04/27 07:05:38;;;;;;;;;;;;;;;-144.99;47.06;52142.38;5043869;28;20044;-64
2021/04/27 07:08:05;;;;;;;;;;;;;;;-144.99;47.03;52146.44;5043959;28;20401;-64
2021/04/27 07:10:31;;;;;;;;;;;;;;;-144.99;46.95;52119.94;5046416;28;19986;-64
2021/04/27 07:12:57;;;;;;;;;;;;;;;-144.99;46.72;52164.78;5044915;28;19967;-64
2021/04/27 07:15:23;;;;;;;;;;;;;;;-144.99;46.58;52119.94;5044033;28;20021;-64
2021/04/27 07:17:52;;;;;;;;;;;;;;;-144.99;45.95;52154.59;5043439;28;19979;-64
2021/04/27 07:20:18;;;;;;;;;;;;;;;-144.99;46.05;52121.97;5041944;28;19959;-64
2021/04/27 07:22:44;;;;;;;;;;;;;;;-144.99;44.99;52121.97;5044286;28;20118;-64
2021/04/27 07:25:11;;;;;;;;;;;;;;;-144.99;44.73;52146.44;5043035;28;20320;-64
2021/04/27 07:27:37;;;;;;;;;;;;;;;-144.99;43.97;52089.38;5044229;28;19955;-64
2021/04/27 07:30:08;;;;;;;;;;;;;;;-144.99;43.56;52134.22;5042851;28;19966;-63
2021/04/27 07:32:37;;;;;;;;;;;;;;;-144.99;43.84;52126.06;5043290;28;20010;-64
2021/04/27 07:35:04;;;;;;;;;;;;;;;-144.99;43.69;52113.84;5043663;28;19961;-64
2021/04/27 07:37:32;;;;;;;;;;;;;;;-144.99;43.72;52166.81;5041444;28;19959;-64
2021/04/27 07:40:01;;;;;;;;;;;;;;;-144.99;43.40;52132.19;5042165;28;20385;-64
2021/04/27 07:42:30;;;;;;;;;;;;;;;-144.99;43.71;52142.38;5043699;28;19970;-64
2021/04/27 07:44:56;;;;;;;;;;;;;;;-144.99;43.93;52150.53;5044229;28;19966;-64
2021/04/27 07:47:22;;;;;;;;;;;;;;;-144.99;43.04;52142.38;5044217;28;20048;-64
2021/04/27 07:49:48;;;;;;;;;;;;;;;-144.99;43.02;52113.84;5041150;28;19966;-62
2021/04/27 07:52:22;;;;;;;;;;;;;;;-144.99;42.67;52113.84;5040501;28;19983;-62
2021/04/27 07:54:51;;;;;;;;;;;;;;;-144.99;42.38;52109.75;5040141;28;19961;-62
2021/04/27 07:57:17;;;;;;;;;;;;;;;-144.99;42.42;52142.38;5042795;28;20520;-64
2021/04/27 07:59:43;;;;;;;;;;;;;;;-144.99;41.47;52113.84;5044328;28;19976;-65
2021/04/27 08:02:09;;;;;;;;;;;;;;;-144.99;41.75;52121.97;5042297;28;20467;-62
2021/04/27 08:04:38;;;;;;;;;;;;;;;-144.99;41.71;52187.19;5044143;28;19948;-63
2021/04/27 08:07:07;;;;;;;;;;;;;;;-144.99;41.27;52124.03;5043858;28;20071;-63
2021/04/27 08:09:36;;;;;;;;;;;;;;;-144.99;41.32;52138.28;5040331;28;19970;-67
2021/04/27 08:12:05;;;;;;;;;;;;;;;-144.99;41.47;52105.69;5042985;28;20425;-63
2021/04/27 08:14:32;;;;;;;;;;;;;;;-144.99;41.66;52162.75;5042707;28;19983;-63
2021/04/27 08:16:58;;;;;;;;;;;;;;;-144.99;41.58;52093.44;5040375;28;20249;-62
2021/04/27 08:19:27;;;;;;;;;;;;;;;-144.99;41.54;52109.75;5042857;28;19979;-62
2021/04/27 08:21:54;;;;;;;;;;;;;;;-144.99;41.18;52156.63;5042086;28;20463;-63
2021/04/27 08:24:20;;;;;;;;;;;;;;;-144.99;41.11;52115.88;5043801;28;19955;-63
2021/04/27 08:26:46;;;;;;;;;;;;;;;-144.99;41.25;52142.38;5040401;28;20009;-64
2021/04/27 08:29:12;;;;;;;;;;;;;;;-144.99;40.80;52146.44;5038354;28;19977;-62
2021/04/27 08:31:38;;;;;;;;;;;;;;;-144.99;40.99;52119.94;5039669;28;19950;-64
2021/04/27 08:34:07;;;;;;;;;;;;;;;-144.99;40.81;52111.78;5043585;28;20403;-64
2021/04/27 08:36:32;;;;;;;;;;;;;;;-144.99;40.48;52130.13;5043223;28;19951;-64
2021/04/27 08:38:59;;;;;;;;;;;;;;;-144.99;39.62;52130.13;5043432;28;20061;-63
2021/04/27 08:41:26;;;;;;;;;;;;;;;-144.99;40.33;52115.88;5042837;28;20011;-64
2021/04/27 08:43:52;;;;;;;;;;;;;;;-144.99;39.54;52113.84;5045862;28;19963;-63
2021/04/27 08:46:18;;;;;;;;;;;;;;;-144.99;39.48;52097.53;5043662;28;20450;-64
2021/04/27 08:48:45;;;;;;;;;;;;;;;-144.99;39.59;52138.28;5046634;28;19970;-64
2021/04/27 08:51:14;;;;;;;;;;;;;;;-144.99;39.67;52101.59;5044893;28;19965;-64
2021/04/27 08:53:42;;;;;;;;;;;;;;;-144.99;39.03;52113.84;5046495;28;20500;-63
2021/04/27 08:56:11;;;;;;;;;;;;;;;-144.99;38.48;52150.53;5046382;28;20350;-64
2021/04/27 08:58:40;;;;;;;;;;;;;;;-144.99;38.31;52134.22;5046070;28;20032;-63
2021/04/27 09:01:06;;;;;;;;;;;;;;;-144.99;38.81;52101.59;5043772;28;19967;-64
2021/04/27 09:03:40;;;;;;;;;;;;;;;-144.99;38.28;52121.97;5044555;28;19960;-64
2021/04/27 09:06:15;;;;;;;;;;;;;;;-144.99;38.67;52126.06;5046229;28;20410;-65
2021/04/27 09:08:44;;;;;;;;;;;;;;;-144.99;38.23;52121.97;5040652;28;20457;-65
2021/04/27 09:11:29;;;;;;;;;;;;;;;-144.99;37.95;52142.38;5048447;28;20003;-63
2021/04/27 09:14:08;;;;;;;;;;;;;;;-144.99;37.36;52111.78;5051638;28;20240;-64
2021/04/27 09:16:34;;;;;;;;;;;;;;;-144.99;37.52;52097.53;5045044;28;19960;-64
2021/04/27 09:19:00;;;;;;;;;;;;;;;-144.99;37.79;52126.06;5045172;28;19969;-64
2021/04/27 09:21:32;;;;;;;;;;;;;;;-144.99;37.02;52115.88;5045212;28;20347;-64
2021/04/27 09:24:11;;;;;;;;;;;;;;;-144.99;37.21;52093.44;5044472;28;19962;-64
2021/04/27 09:26:37;;;;;;;;;;;;;;;-144.99;36.99;52087.34;5039911;28;20609;-63
2021/04/27 09:29:06;;;;;;;;;;;;;;;-144.99;37.00;52101.59;5045296;28;19971;-65
2021/04/27 09:31:36;;;;;;;;;;;;;;;-144.99;36.57;52113.84;5043542;28;20417;-64
2021/04/27 09:34:19;;;;;;;;;;;;;;;-144.99;35.90;52081.22;5046754;28;20435;-65
2021/04/27 09:36:48;;;;;;;;;;;;;;;-144.99;35.56;52117.91;5043863;28;20007;-65
2021/04/27 09:39:14;;;;;;;;;;;;;;;-144.99;35.46;52105.69;5045948;28;20009;-65
2021/04/27 09:41:41;;;;;;;;;;;;;;;-144.99;35.79;52117.91;5045591;28;19978;-65
2021/04/27 09:44:24;;;;;;;;;;;;;;;-144.99;36.05;52089.38;5045984;28;20447;-64
2021/04/27 09:47:05;;;;;;;;;;;;;;;-144.99;35.95;52060.84;5046148;28;20024;-64
2021/04/27 09:49:33;;;;;;;;;;;;;;;-144.99;35.47;52079.19;5041775;28;19971;-64
2021/04/27 09:52:06;;;;;;;;;;;;;;;-144.99;35.72;52052.69;5045962;28;20019;-65
2021/04/27 09:54:32;;;;;;;;;;;;;;;-144.99;35.31;52073.06;5045226;28;19989;-65
2021/04/27 09:56:59;;;;;;;;;;;;;;;-144.99;34.76;52056.78;5045696;28;19958;-65
2021/04/27 09:59:28;;;;;;;;;;;;;;;-144.99;33.95;52052.69;5044255;28;20441;-64
2021/04/27 10:01:58;;;;;;;;;;;;;;;-144.99;33.36;52060.84;5046472;28;20003;-65
2021/04/27 10:04:26;;;;;;;;;;;;;;;-144.99;33.68;52062.88;5050399;28;20004;-65
2021/04/27 10:06:55;;;;;;;;;;;;;;;-144.99;33.71;52060.84;5048917;28;20342;-65
2021/04/27 10:09:21;;;;;;;;;;;;;;;-144.99;34.22;52058.81;5050005;28;20523;-64
2021/04/27 10:11:51;;;;;;;;;;;;;;;-144.99;33.70;52069.00;5047711;28;20045;-65
2021/04/27 10:14:21;;;;;;;;;;;;;;;-144.99;34.22;52081.22;5048703;28;19992;-64
2021/04/27 10:16:52;;;;;;;;;;;;;;;-144.99;33.03;52056.78;5045472;28;19954;-64
2021/04/27 10:19:21;;;;;;;;;;;;;;;-144.99;33.04;52026.19;5045874;28;19977;-66
2021/04/27 10:21:51;;;;;;;;;;;;;;;-144.99;33.42;52069.00;5047206;28;19998;-65
2021/04/27 10:24:20;;;;;;;;;;;;;;;-144.99;32.46;52040.47;5047882;28;19985;-64
2021/04/27 10:26:47;;;;;;;;;;;;;;;-144.99;33.28;52011.94;5046824;28;20019;-67
2021/04/27 10:29:19;;;;;;;;;;;;;;;-144.99;32.06;51987.47;5047643;28;19993;-65
2021/04/27 10:31:47;;;;;;;;;;;;;;;-144.99;32.09;52011.94;5041151;28;19979;-65
2021/04/27 10:34:17;;;;;;;;;;;;;;;-144.99;31.95;51987.47;5047351;28;20354;-65
2021/04/27 10:36:58;;;;;;;;;;;;;;;-144.99;31.21;51987.47;5046216;28;19973;-65
2021/04/27 10:39:38;;;;;;;;;;;;;;;-144.99;31.92;51975.25;5046483;28;20039;-66
2021/04/27 10:42:15;;;;;;;;;;;;;;;-144.99;32.69;51979.31;5046842;28;20039;-65
2021/04/27 10:44:49;;;;;;;;;;;;;;;-144.99;32.77;51991.56;5044581;28;19988;-66
2021/04/27 10:47:17;;;;;;;;;;;;;;;-144.99;31.71;51975.25;5046527;28;19973;-67
2021/04/27 10:49:44;;;;;;;;;;;;;;;-144.99;31.89;51950.78;5046596;28;20378;-66
2021/04/27 10:52:27;;;;;;;;;;;;;;;-144.99;31.27;51954.88;5046509;28;19973;-66
2021/04/27 10:55:13;;;;;;;;;;;;;;;-144.99;31.35;51924.28;5042109;28;19992;-66
2021/04/27 10:57:52;;;;;;;;;;;;;;;-144.99;30.86;51954.88;5045213;28;20046;-65
2021/04/27 11:00:34;;;;;;;;;;;;;;;-144.99;31.09;51893.72;5047490;28;19985;-65
2021/04/27 11:03:13;;;;;;;;;;;;;;;-144.99;30.16;51938.56;5044514;28;20054;-66
2021/04/27 11:05:50;;;;;;;;;;;;;;;-144.99;29.80;51901.88;5040450;28;20059;-66
2021/04/27 11:08:16;;;;;;;;;;;;;;;-144.99;30.05;51893.72;5046247;28;19997;-65
2021/04/27 11:10:43;;;;;;;;;;;;;;;-144.99;29.85;51914.09;5045242;28;20384;-65
2021/04/27 11:13:13;;;;;;;;;;;;;;;-144.99;29.68;51885.56;5043248;28;19981;-65
2021/04/27 11:15:43;;;;;;;;;;;;;;;-144.99;29.87;51901.88;5034367;28;20038;-66
2021/04/27 11:18:18;;;;;;;;;;;;;;;-144.99;29.95;51916.16;5044707;28;20195;-65
2021/04/27 11:20:55;;;;;;;;;;;;;;;-144.99;29.72;51897.81;5047816;28;19977;-65
2021/04/27 11:23:40;;;;;;;;;;;;;;;-144.99;29.88;51893.72;5047737;28;19993;-66
2021/04/27 11:26:21;;;;;;;;;;;;;;;-144.99;29.65;51897.81;5047640;28;19985;-65
2021/04/27 11:29:00;;;;;;;;;;;;;;;-144.99;29.02;51914.09;5034965;28;20001;-66
2021/04/27 11:31:31;;;;;;;;;;;;;;;-144.99;29.22;51922.25;5047900;28;19985;-65
2021/04/27 11:33:57;;;;;;;;;;;;;;;-144.99;30.03;51910.03;5042280;28;19981;-66
2021/04/27 11:36:40;;;;;;;;;;;;;;;-144.99;28.70;51863.16;5041817;28;19988;-65
2021/04/27 11:39:11;;;;;;;;;;;;;;;-144.99;29.13;51916.16;5044299;28;19993;-65
2021/04/27 11:41:46;;;;;;;;;;;;;;;-144.99;28.89;51930.41;5047186;28;20489;-65
2021/04/27 11:44:13;;;;;;;;;;;;;;;-144.99;28.82;51928.38;5047333;28;19973;-66
2021/04/27 11:46:52;;;;;;;;;;;;;;;-144.99;28.02;51885.56;5043729;28;20208;-66
2021/04/27 11:49:17;;;;;;;;;;;;;;;-144.99;28.72;51940.59;5042184;28;20001;-64
2021/04/27 11:51:44;;;;;;;;;;;;;;;-144.99;28.28;51893.72;5043689;28;20027;-65
2021/04/27 11:54:12;;;;;;;;;;;;;;;-144.99;28.58;51922.25;5047103;28;20163;-65
2021/04/27 11:56:51;;;;;;;;;;;;;;;-144.99;28.72;51901.88;5047467;28;20439;-65
2021/04/27 11:59:20;;;;;;;;;;;;;;;-144.99;28.15;51926.34;5047360;28;20467;-66
2021/04/27 12:01:46;;;;;;;;;;;;;;;-144.99;28.16;51893.72;5046515;28;19993;-66
2021/04/27 12:04:12;;;;;;;;;;;;;;;-144.99;28.28;51905.97;5046576;28;20388;-66
2021/04/27 12:06:57;;;;;;;;;;;;;;;-144.99;28.10;51918.19;5046902;28;20026;-66
2021/04/27 12:09:26;;;;;;;;;;;;;;;-144.99;28.12;51914.09;5034615;28;20000;-66
2021/04/27 12:11:55;;;;;;;;;;;;;;;-144.99;28.00;51893.72;5046168;28;19980;-66
2021/04/27 12:14:24;;;;;;;;;;;;;;;-144.99;28.25;51905.97;5039880;28;19981;-66
2021/04/27 12:16:54;;;;;;;;;;;;;;;-144.99;27.19;51897.81;5047401;28;19981;-66
2021/04/27 12:19:23;;;;;;;;;;;;;;;-144.99;27.69;51889.66;5050824;28;20091;-65
2021/04/27 12:21:52;;;;;;;;;;;;;;;-144.99;28.21;51922.25;5046197;28;20037;-65
2021/04/27 12:24:20;;;;;;;;;;;;;;;-144.99;27.67;51946.72;5049256;28;19977;-65
2021/04/27 12:26:50;;;;;;;;;;;;;;;-144.99;28.39;51950.78;5044774;28;20078;-65
2021/04/27 12:29:19;;;;;;;;;;;;;;;-144.99;28.69;51971.16;5049069;28;20043;-65
2021/04/27 12:31:48;;;;;;;;;;;;;;;-144.99;27.45;51938.56;5051114;28;20003;-65
2021/04/27 12:34:15;;;;;;;;;;;;;;;-144.99;27.88;51975.25;5050682;28;19985;-66